Terminal Aerodrome Forecast
Issued by NWS

Home | Current Version | Previous Version | Text Only | Print | Product List | Glossary On
Versions: 1 2 3 4 5 6 7 8 9 10 11 12 13 14 15 16 17 18 19 20 21 22 23 24 25 26 27 28
000
FTUS43 KDDC 222322
TAFGCK
TAF
KGCK 222322Z 2300/2324 17015G22KT P6SM BKN090
     FM230100 16013KT P6SM SCT025 BKN050
      TEMPO 2303/2306 -TSRA SCT020 BKN030CB
     FM231500 18019G25KT P6SM BKN040=

USA.gov is the U.S. government's official web portal to all federal, state and local government web resources and services.